createdAt,value
2023-05-16T00:01:15.872Z,151586.28
2023-05-16T00:03:42.577Z,151604.00
2023-05-16T00:06:09.139Z,151597.63
2023-05-16T00:08:35.272Z,151595.13
2023-05-16T00:11:01.105Z,151597.63
2023-05-16T00:13:28.993Z,151602.69
2023-05-16T00:15:55.502Z,151592.59
2023-05-16T00:18:22.251Z,151584.97
2023-05-16T00:20:49.142Z,151611.59
2023-05-16T00:23:14.906Z,151592.59
2023-05-16T00:25:40.676Z,151602.69
2023-05-16T00:28:08.005Z,151586.28
2023-05-16T00:30:34.556Z,151569.81
2023-05-16T00:33:01.268Z,151581.16
2023-05-16T00:35:27.235Z,151552.06
2023-05-16T00:37:53.020Z,151563.44
2023-05-16T00:40:18.957Z,151565.97
2023-05-16T00:42:44.844Z,151496.38
2023-05-16T00:45:13.200Z,151446.97
2023-05-16T00:47:39.031Z,151409.00
2023-05-16T00:50:06.584Z,151419.09
2023-05-16T00:52:33.041Z,151400.13
2023-05-16T00:54:59.134Z,151396.34
2023-05-16T00:57:25.040Z,151345.66
2023-05-16T00:59:51.113Z,151377.34
2023-05-16T01:02:17.286Z,151307.69
2023-05-16T01:04:43.866Z,151281.13
2023-05-16T01:07:10.033Z,151314.00
2023-05-16T01:09:36.055Z,151331.72
2023-05-16T01:12:13.995Z,151286.19
2023-05-16T01:14:59.779Z,151293.75
2023-05-16T01:17:47.481Z,151289.97
2023-05-16T01:20:39.934Z,151260.84
2023-05-16T01:23:26.096Z,151308.94
2023-05-16T01:26:11.052Z,151298.84
2023-05-16T01:28:38.810Z,151246.97
2023-05-16T01:31:05.210Z,151262.16
2023-05-16T01:33:31.108Z,151255.81
2023-05-16T01:36:05.913Z,151212.81
2023-05-16T01:38:50.414Z,151235.56
2023-05-16T01:42:07.301Z,151245.69
2023-05-16T01:44:59.175Z,151252.00
2023-05-16T01:47:27.201Z,151264.69
2023-05-16T01:50:17.082Z,151229.25
2023-05-16T01:52:58.239Z,151263.41
2023-05-16T01:55:46.016Z,151235.56
2023-05-16T01:58:14.651Z,151273.50
2023-05-16T02:00:41.618Z,151282.41
2023-05-16T02:03:07.929Z,151300.13
2023-05-16T02:05:34.221Z,151236.81
2023-05-16T02:08:00.673Z,151230.50
2023-05-16T02:10:27.483Z,151230.50
2023-05-16T02:12:53.588Z,151233.03
2023-05-16T02:15:19.782Z,151230.50
2023-05-16T02:17:46.645Z,151209.03
2023-05-16T02:20:12.699Z,151209.03
2023-05-16T02:22:38.594Z,151234.31
2023-05-16T02:25:05.354Z,151228.00
2023-05-16T02:27:31.610Z,151226.72
2023-05-16T02:29:58.059Z,151236.81
2023-05-16T02:32:23.981Z,151205.19
2023-05-16T02:34:49.851Z,151217.84
2023-05-16T02:37:15.829Z,151197.63
2023-05-16T02:39:41.699Z,151205.19
2023-05-16T02:42:07.559Z,151265.94
2023-05-16T02:44:33.622Z,151211.53
2023-05-16T02:46:59.434Z,151222.91
2023-05-16T02:49:25.663Z,151233.03
2023-05-16T02:51:51.666Z,151241.88
2023-05-16T02:54:18.086Z,151233.03
2023-05-16T02:56:44.260Z,151202.66
2023-05-16T02:59:10.930Z,151177.38
2023-05-16T03:01:37.007Z,151181.16
2023-05-16T03:04:03.361Z,151143.22
2023-05-16T03:06:32.228Z,151119.22
2023-05-16T03:08:58.094Z,151085.06
2023-05-16T03:11:24.160Z,151126.78
2023-05-16T03:13:50.118Z,151090.09
2023-05-16T03:16:16.059Z,151019.28
2023-05-16T03:18:42.521Z,150966.19
2023-05-16T03:21:08.405Z,150942.19
2023-05-16T03:23:34.262Z,150919.44
2023-05-16T03:26:00.403Z,150897.91
2023-05-16T03:28:26.243Z,150884.00
2023-05-16T03:30:52.416Z,150903.00
2023-05-16T03:33:21.153Z,150832.19
2023-05-16T03:35:47.069Z,150839.75
2023-05-16T03:38:12.907Z,150841.00
2023-05-16T03:40:39.264Z,150853.66
2023-05-16T03:43:05.166Z,150803.09
2023-05-16T03:45:31.148Z,150830.94
2023-05-16T03:47:57.549Z,150848.63
2023-05-16T03:50:23.714Z,150872.63
2023-05-16T03:52:49.671Z,150827.09
2023-05-16T03:55:15.820Z,150830.94
2023-05-16T03:57:42.311Z,150806.88
2023-05-16T04:00:13.256Z,150822.06
2023-05-16T04:02:40.152Z,150865.00
2023-05-16T04:05:10.698Z,150842.28
2023-05-16T04:07:37.340Z,150849.88
2023-05-16T04:10:04.390Z,150856.19
2023-05-16T04:12:30.262Z,150854.91
2023-05-16T04:14:56.137Z,150858.69
2023-05-16T04:17:22.006Z,150835.97
2023-05-16T04:19:47.904Z,150867.56
2023-05-16T04:22:13.744Z,150859.97
2023-05-16T04:24:39.698Z,150827.09
2023-05-16T04:27:08.247Z,150852.41
2023-05-16T04:29:35.040Z,150839.75
2023-05-16T04:32:01.821Z,150804.38
2023-05-16T04:34:27.677Z,150810.66
2023-05-16T04:36:54.756Z,150818.28
2023-05-16T04:39:20.832Z,150766.47
2023-05-16T04:41:47.060Z,150745.00
2023-05-16T04:44:12.921Z,150757.66
2023-05-16T04:46:39.224Z,150792.97
2023-05-16T04:49:05.443Z,150824.56
2023-05-16T04:51:33.232Z,150823.31
2023-05-16T04:53:59.523Z,150803.09
2023-05-16T04:56:26.372Z,150789.19
2023-05-16T04:58:52.638Z,150785.41
2023-05-16T05:01:18.513Z,150798.06
2023-05-16T05:07:35.340Z,150795.53
2023-05-16T05:10:01.636Z,150791.72
2023-05-16T05:12:27.859Z,150803.09
2023-05-16T05:14:54.136Z,150810.66
2023-05-16T05:17:20.987Z,150786.69
2023-05-16T05:19:47.677Z,150770.25
2023-05-16T05:22:14.325Z,150777.84
2023-05-16T05:24:40.276Z,150751.28
2023-05-16T05:27:06.160Z,150747.50
2023-05-16T05:29:32.051Z,150750.03
2023-05-16T05:31:58.931Z,150707.09
2023-05-16T05:34:24.829Z,150685.59
2023-05-16T05:36:50.664Z,150651.53
2023-05-16T05:39:16.690Z,150669.22
2023-05-16T05:41:42.571Z,150645.19
2023-05-16T05:44:08.414Z,150657.84
2023-05-16T05:46:34.543Z,150621.22
2023-05-16T05:49:00.775Z,150654.06
2023-05-16T05:51:26.824Z,150618.69
2023-05-16T05:53:53.498Z,150640.16
2023-05-16T05:56:20.706Z,150674.25
2023-05-16T05:58:46.848Z,150722.28
2023-05-16T06:01:12.779Z,150717.19
2023-05-16T06:03:38.954Z,150733.59
2023-05-16T06:06:05.099Z,150704.59
2023-05-16T06:08:30.876Z,150720.97
2023-05-16T06:10:56.696Z,150737.38
2023-05-16T06:13:22.547Z,150806.88
2023-05-16T06:15:52.381Z,150753.81
2023-05-16T06:18:18.383Z,150784.16
2023-05-16T06:20:44.356Z,150737.38
2023-05-16T06:23:10.220Z,150742.47
2023-05-16T06:25:36.093Z,150827.09
2023-05-16T06:28:01.939Z,150859.97
2023-05-16T06:30:27.798Z,150911.84
2023-05-16T06:32:53.937Z,150910.56
2023-05-16T06:35:20.248Z,150932.06
2023-05-16T06:37:46.072Z,150897.91
2023-05-16T06:40:14.725Z,150891.63
2023-05-16T06:42:40.627Z,150934.56
2023-05-16T06:45:07.299Z,150930.78
2023-05-16T06:47:33.364Z,150968.72
2023-05-16T06:49:59.269Z,150937.09
2023-05-16T06:52:25.315Z,150939.66
2023-05-16T06:54:52.182Z,150886.53
2023-05-16T06:57:18.035Z,150880.19
2023-05-16T06:59:44.010Z,150856.19
2023-05-16T07:02:10.005Z,150848.63
2023-05-16T07:04:37.197Z,150829.66
2023-05-16T07:07:03.836Z,150873.88
2023-05-16T07:09:30.614Z,150924.50
2023-05-16T07:11:56.622Z,150943.44
2023-05-16T07:14:22.687Z,150913.09
2023-05-16T07:16:48.606Z,150903.00
2023-05-16T07:19:14.605Z,150884.00
2023-05-16T07:21:40.917Z,150853.66
2023-05-16T07:24:07.411Z,150851.13
2023-05-16T07:26:33.412Z,150810.66
2023-05-16T07:28:59.383Z,150798.06
2023-05-16T07:31:25.308Z,150801.84
2023-05-16T07:33:51.237Z,150876.41
2023-05-16T07:36:17.773Z,150884.00
2023-05-16T07:38:44.299Z,150876.41
2023-05-16T07:41:10.249Z,150882.69
2023-05-16T07:43:36.234Z,150895.41
2023-05-16T07:46:02.723Z,150966.19
2023-05-16T07:48:28.681Z,151001.59
2023-05-16T07:50:55.843Z,151044.56
2023-05-16T07:53:21.945Z,151043.28
2023-05-16T07:55:48.704Z,151040.78
2023-05-16T07:58:14.706Z,150958.63
2023-05-16T08:00:40.713Z,150954.78
2023-05-16T08:03:06.760Z,151000.31
2023-05-16T08:05:32.898Z,151025.59
2023-05-16T08:07:58.824Z,151028.16
2023-05-16T08:10:25.075Z,151029.44
2023-05-16T08:12:52.596Z,151068.63
2023-05-16T08:15:18.640Z,151066.09
2023-05-16T08:17:45.006Z,151085.06
2023-05-16T08:20:11.744Z,151133.09
2023-05-16T08:22:38.011Z,151225.47
2023-05-16T08:25:04.517Z,151230.50
2023-05-16T08:27:30.408Z,151141.97
2023-05-16T08:29:56.210Z,151131.81
2023-05-16T08:32:22.569Z,151135.66
2023-05-16T08:34:48.459Z,151124.25
2023-05-16T08:37:15.960Z,151106.53
2023-05-16T08:39:43.184Z,151131.81
2023-05-16T08:42:09.132Z,151130.56
2023-05-16T08:44:35.051Z,151133.09
2023-05-16T08:47:12.220Z,151112.84
2023-05-16T08:49:40.812Z,151097.66
2023-05-16T08:52:09.136Z,151083.78
2023-05-16T08:54:36.701Z,151087.59
2023-05-16T08:57:04.231Z,151025.59
2023-05-16T08:59:30.951Z,151055.94
2023-05-16T09:01:57.584Z,151039.50
2023-05-16T09:04:25.326Z,151076.19
2023-05-16T09:06:51.790Z,151102.75
2023-05-16T09:09:17.708Z,151126.78
2023-05-16T09:11:43.714Z,151178.63
2023-05-16T09:14:09.569Z,151167.25
2023-05-16T09:16:35.477Z,151271.00
2023-05-16T09:19:01.579Z,151317.84
2023-05-16T09:21:33.449Z,151359.63
2023-05-16T09:24:06.659Z,151429.25
2023-05-16T09:26:39.298Z,151362.16
2023-05-16T09:29:12.494Z,151362.16
2023-05-16T09:31:39.073Z,151383.66
2023-05-16T09:34:11.984Z,151341.84
2023-05-16T09:36:38.471Z,151314.00
2023-05-16T09:39:07.553Z,151249.50
2023-05-16T09:41:34.764Z,151277.31
2023-05-16T09:44:05.350Z,151277.31
2023-05-16T09:46:34.205Z,151350.69
2023-05-16T09:49:00.120Z,151409.00
2023-05-16T09:51:26.496Z,151501.41
2023-05-16T09:53:52.447Z,151614.09
2023-05-16T09:56:18.461Z,151676.19
2023-05-16T09:58:45.617Z,151612.84
2023-05-16T10:01:12.087Z,151517.88
2023-05-16T10:03:40.088Z,151526.72
2023-05-16T10:06:07.651Z,151462.16
2023-05-16T10:08:35.852Z,151440.63
2023-05-16T10:11:03.952Z,151571.06
2023-05-16T10:13:32.506Z,151590.06
2023-05-16T10:15:59.883Z,151615.38
2023-05-16T10:18:30.679Z,151562.19
2023-05-16T10:21:11.227Z,151514.09
2023-05-16T10:23:42.004Z,151510.25
2023-05-16T10:26:08.609Z,151455.81
2023-05-16T10:28:35.954Z,151539.41
2023-05-16T10:31:02.508Z,151740.78
2023-05-16T10:33:28.655Z,151868.81
2023-05-16T10:35:55.259Z,151796.59
2023-05-16T10:38:23.685Z,151786.47
2023-05-16T10:40:50.674Z,151834.59
2023-05-16T10:43:25.197Z,152001.97
2023-05-16T10:45:59.131Z,152059.03
2023-05-16T10:48:33.248Z,152161.78
2023-05-16T10:50:59.354Z,152125.00
2023-05-16T10:53:28.078Z,152031.09
2023-05-16T10:56:00.455Z,151988.00
2023-05-16T10:58:38.293Z,151970.25
2023-05-16T11:01:18.945Z,151740.78
2023-05-16T11:03:57.812Z,151846.03
2023-05-16T11:06:25.563Z,151849.81
2023-05-16T11:09:18.502Z,151985.47
2023-05-16T11:11:59.675Z,151958.84
2023-05-16T11:14:33.085Z,152216.38
2023-05-16T11:17:22.767Z,152452.50
2023-05-16T11:19:58.381Z,152566.75
2023-05-16T11:22:27.771Z,152635.34
2023-05-16T11:25:04.996Z,152686.16
2023-05-16T11:27:33.294Z,152670.91
2023-05-16T11:30:21.069Z,152561.69
2023-05-16T11:32:47.903Z,152701.41
2023-05-16T11:35:16.220Z,152717.94
2023-05-16T11:37:43.398Z,152672.19
2023-05-16T11:40:11.751Z,152767.50
2023-05-16T11:42:47.860Z,152634.06
2023-05-16T11:45:24.012Z,152632.81
2023-05-16T11:47:50.681Z,152772.56
2023-05-16T11:50:18.952Z,152820.88
2023-05-16T11:52:48.455Z,152928.91
2023-05-16T11:55:28.338Z,152810.69
2023-05-16T11:58:03.870Z,152825.94
2023-05-16T12:00:29.920Z,152721.75
2023-05-16T12:03:03.642Z,152615.03
2023-05-16T12:05:32.199Z,152684.84
2023-05-16T12:07:59.118Z,152570.56
2023-05-16T12:10:25.784Z,152496.91
2023-05-16T12:12:52.346Z,152369.91
2023-05-16T12:15:18.812Z,152287.38
2023-05-16T12:17:46.415Z,152203.69
2023-05-16T12:20:13.848Z,152292.50
2023-05-16T12:22:40.899Z,152590.88
2023-05-16T12:25:25.508Z,152743.38
2023-05-16T12:27:56.574Z,152626.44
2023-05-16T12:30:24.077Z,152551.50
2023-05-16T12:33:09.528Z,152405.44
2023-05-16T12:35:38.550Z,152336.91
2023-05-16T12:38:06.952Z,152212.53
2023-05-16T12:40:33.098Z,152165.63
2023-05-16T12:43:00.375Z,152026.03
2023-05-16T12:45:27.316Z,152048.84
2023-05-16T12:47:53.335Z,151998.13
2023-05-16T12:50:19.564Z,151965.19
2023-05-16T12:52:58.954Z,151934.75
2023-05-16T12:55:25.488Z,151885.31
2023-05-16T12:57:51.538Z,151870.09
2023-05-16T13:00:20.106Z,151762.38
2023-05-16T13:02:47.761Z,151747.16
2023-05-16T13:05:14.202Z,151778.84
2023-05-16T13:07:41.037Z,151721.78
2023-05-16T13:10:11.488Z,151690.09
2023-05-16T13:12:38.535Z,151719.25
2023-05-16T13:15:06.791Z,151718.00
2023-05-16T13:17:37.339Z,151682.53
2023-05-16T13:20:14.135Z,151687.56
2023-05-16T13:22:40.718Z,151720.53
2023-05-16T13:25:07.410Z,151704.06
2023-05-16T13:27:33.503Z,151743.31
2023-05-16T13:29:59.973Z,151796.59
2023-05-16T13:32:26.406Z,151908.13
2023-05-16T13:34:52.786Z,152055.22
2023-05-16T13:37:18.868Z,152046.31
2023-05-16T13:39:44.938Z,151989.28
2023-05-16T13:42:10.836Z,151908.13
2023-05-16T13:44:36.878Z,151843.50
2023-05-16T13:47:03.100Z,151797.84
2023-05-16T13:49:29.243Z,151772.53
2023-05-16T13:51:55.195Z,151797.84
2023-05-16T13:54:22.069Z,151806.75
2023-05-16T13:56:48.235Z,151889.09
2023-05-16T13:59:18.561Z,151958.84
2023-05-16T14:01:56.631Z,152010.81
2023-05-16T14:04:22.873Z,152070.41
2023-05-16T14:06:49.251Z,152080.56
2023-05-16T14:09:16.189Z,152079.31
2023-05-16T14:11:42.126Z,152023.53
2023-05-16T14:14:08.077Z,152033.63
2023-05-16T14:16:34.078Z,152015.88
2023-05-16T14:19:00.179Z,151984.22
2023-05-16T14:21:26.288Z,151937.28
2023-05-16T14:23:52.204Z,151942.34
2023-05-16T14:26:21.917Z,151998.13
2023-05-16T14:28:48.166Z,151962.63
2023-05-16T14:31:14.041Z,151988.00
2023-05-16T14:33:40.437Z,152177.00
2023-05-16T14:36:08.646Z,152387.69
2023-05-16T14:38:34.815Z,152557.84
2023-05-16T14:41:00.834Z,152634.06
2023-05-16T14:43:26.713Z,152565.47
2023-05-16T14:45:52.646Z,152533.72
2023-05-16T14:48:18.745Z,152551.50
2023-05-16T14:50:45.319Z,152443.56
2023-05-16T14:53:11.554Z,152521.00
2023-05-16T14:55:37.610Z,152609.91
2023-05-16T14:58:04.759Z,152725.59
2023-05-16T15:00:31.435Z,152573.09
2023-05-16T15:02:57.552Z,152460.09
2023-05-16T15:05:24.897Z,152352.13
2023-05-16T15:07:51.644Z,152320.38
2023-05-16T15:10:17.501Z,152317.84
2023-05-16T15:12:43.344Z,152306.41
2023-05-16T15:15:14.936Z,152432.13
2023-05-16T15:17:42.493Z,152443.56
2023-05-16T15:20:09.932Z,152559.09
2023-05-16T15:22:36.492Z,152588.34
2023-05-16T15:25:04.116Z,152669.66
2023-05-16T15:27:29.961Z,152645.47
2023-05-16T15:29:55.935Z,152564.22
2023-05-16T15:32:22.989Z,152493.09
2023-05-16T15:34:49.135Z,152357.19
2023-05-16T15:37:15.368Z,152221.44
2023-05-16T15:39:41.673Z,152169.41
2023-05-16T15:42:11.157Z,152125.00
2023-05-16T15:44:37.886Z,152138.97
2023-05-16T15:47:04.124Z,152145.34
2023-05-16T15:49:30.257Z,152069.16
2023-05-16T15:51:56.212Z,152079.31
2023-05-16T15:54:22.133Z,152036.22
2023-05-16T15:56:48.160Z,151990.53
2023-05-16T15:59:14.066Z,151970.25
2023-05-16T16:01:40.271Z,151956.31
2023-05-16T16:04:06.625Z,151938.56
2023-05-16T16:06:32.516Z,151937.28
2023-05-16T16:08:58.536Z,151923.34
2023-05-16T16:11:26.697Z,151886.56
2023-05-16T16:13:52.558Z,151922.06
2023-05-16T16:16:20.496Z,151901.78
2023-05-16T16:18:46.952Z,151840.97
2023-05-16T16:21:13.217Z,151861.25
2023-05-16T16:23:39.508Z,151908.13
2023-05-16T16:26:05.923Z,151884.03
2023-05-16T16:28:32.167Z,151930.97
2023-05-16T16:30:58.462Z,151896.75
2023-05-16T16:33:24.454Z,151889.09
2023-05-16T16:35:52.086Z,151903.06
2023-05-16T16:38:18.390Z,151894.22
2023-05-16T16:40:44.465Z,151953.78
2023-05-16T16:43:10.436Z,152013.34
2023-05-16T16:45:36.413Z,151914.47
2023-05-16T16:48:02.771Z,151840.97
2023-05-16T16:50:28.882Z,151815.59
2023-05-16T16:52:54.857Z,151712.94
2023-05-16T16:55:21.241Z,151742.06
2023-05-16T16:57:47.133Z,151705.31
2023-05-16T17:00:13.502Z,151731.94
2023-05-16T17:02:39.483Z,151672.38
2023-05-16T17:05:06.105Z,151705.31
2023-05-16T17:07:32.396Z,151718.00
2023-05-16T17:09:58.414Z,151724.31
2023-05-16T17:12:27.711Z,151677.47
2023-05-16T17:14:55.495Z,151690.09
2023-05-16T17:17:23.056Z,151714.22
2023-05-16T17:19:48.962Z,151671.09
2023-05-16T17:22:15.251Z,151683.78
2023-05-16T17:24:41.455Z,151711.69
2023-05-16T17:27:07.430Z,151702.78
2023-05-16T17:29:33.420Z,151739.53
2023-05-16T17:31:59.414Z,151642.00
2023-05-16T17:34:26.065Z,151653.38
2023-05-16T17:36:52.137Z,151610.31
2023-05-16T17:39:18.360Z,151619.16
2023-05-16T17:41:44.372Z,151597.63
2023-05-16T17:44:10.299Z,151544.44
2023-05-16T17:46:39.309Z,151538.13
2023-05-16T17:49:07.295Z,151543.19
2023-05-16T17:51:47.021Z,151535.59
2023-05-16T17:54:13.160Z,151463.44
2023-05-16T17:56:39.238Z,151452.03
2023-05-16T17:59:05.267Z,151467.22
2023-05-16T18:01:32.252Z,151488.75
2023-05-16T18:03:58.252Z,151495.06
2023-05-16T18:06:24.247Z,151441.91
2023-05-16T18:08:50.176Z,151428.00
2023-05-16T18:11:16.623Z,151403.91
2023-05-16T18:13:43.376Z,151343.13
2023-05-16T18:16:09.482Z,151349.44
2023-05-16T18:18:37.128Z,151343.13
2023-05-16T18:21:04.985Z,151316.56
2023-05-16T18:23:32.953Z,151325.41
2023-05-16T18:25:58.849Z,151258.31
2023-05-16T18:28:24.783Z,151257.06
2023-05-16T18:30:51.004Z,151226.72
2023-05-16T18:33:17.086Z,151229.25
2023-05-16T18:35:43.094Z,151222.91
2023-05-16T18:38:14.447Z,151253.28
2023-05-16T18:40:47.407Z,151234.31
2023-05-16T18:43:14.365Z,151241.88
2023-05-16T18:45:40.412Z,151222.91
2023-05-16T18:48:06.681Z,151221.63
2023-05-16T18:50:32.706Z,151215.31
2023-05-16T18:52:58.711Z,151210.28
2023-05-16T18:55:25.035Z,151200.13
2023-05-16T18:57:51.440Z,151186.22
2023-05-16T19:00:19.305Z,151197.63
2023-05-16T19:02:46.437Z,151196.34
2023-05-16T19:05:14.643Z,151235.56
2023-05-16T19:07:41.456Z,151222.91
2023-05-16T19:10:08.421Z,151149.53
2023-05-16T19:12:34.609Z,151167.25
2023-05-16T19:15:00.964Z,151158.41
2023-05-16T19:17:27.174Z,151181.16
2023-05-16T19:19:53.215Z,151157.16
2023-05-16T19:22:19.372Z,151172.34
2023-05-16T19:24:45.577Z,151184.94
2023-05-16T19:27:11.582Z,151167.25
2023-05-16T19:29:37.536Z,151148.28
2023-05-16T19:32:04.029Z,151171.03
2023-05-16T19:34:30.258Z,151158.41
2023-05-16T19:36:56.449Z,151165.97
2023-05-16T19:39:22.582Z,151174.84
2023-05-16T19:41:52.186Z,151178.63
2023-05-16T19:44:19.105Z,151172.34
2023-05-16T19:46:45.588Z,151169.75
2023-05-16T19:49:11.662Z,151209.03
2023-05-16T19:51:41.769Z,151188.75
2023-05-16T19:54:08.700Z,151209.03
2023-05-16T19:56:34.914Z,151197.63
2023-05-16T19:59:00.917Z,151179.91
2023-05-16T20:01:27.086Z,151168.50
2023-05-16T20:03:53.371Z,151134.34
2023-05-16T20:06:19.418Z,151141.97
2023-05-16T20:08:45.618Z,151158.41
2023-05-16T20:11:12.571Z,151149.53
2023-05-16T20:13:38.622Z,151184.94
2023-05-16T20:16:05.135Z,151155.88
2023-05-16T20:18:31.127Z,151152.06
2023-05-16T20:20:58.590Z,151112.84
2023-05-16T20:23:24.852Z,151134.34
2023-05-16T20:25:50.864Z,151112.84
2023-05-16T20:28:16.956Z,151112.84
2023-05-16T20:30:42.879Z,151158.41
2023-05-16T20:33:08.844Z,151136.91
2023-05-16T20:35:34.779Z,151126.78
2023-05-16T20:38:00.692Z,151102.75
2023-05-16T20:40:26.741Z,151112.84
2023-05-16T20:42:52.626Z,151109.06
2023-05-16T20:45:18.477Z,151114.13
2023-05-16T20:47:44.481Z,151129.31
2023-05-16T20:50:10.567Z,151114.13
2023-05-16T20:52:36.446Z,151109.06
2023-05-16T20:55:02.462Z,151119.22
2023-05-16T20:57:28.316Z,151098.94
2023-05-16T20:59:54.180Z,151140.69
2023-05-16T21:02:20.353Z,151143.22
2023-05-16T21:04:46.654Z,151140.69
2023-05-16T21:07:12.881Z,151115.38
2023-05-16T21:09:39.417Z,151085.06
2023-05-16T21:12:05.738Z,151048.38
2023-05-16T21:14:31.678Z,151057.22
2023-05-16T21:16:57.533Z,151067.34
2023-05-16T21:19:23.581Z,151035.72
2023-05-16T21:21:49.801Z,151062.25
2023-05-16T21:24:15.686Z,151093.88
2023-05-16T21:26:41.673Z,151045.88
2023-05-16T21:29:07.646Z,151015.50
2023-05-16T21:31:33.536Z,151005.38
2023-05-16T21:33:59.488Z,151012.97
2023-05-16T21:36:25.591Z,150994.03
2023-05-16T21:38:51.738Z,150996.53
2023-05-16T21:41:18.761Z,151002.84
2023-05-16T21:43:44.730Z,150925.75
2023-05-16T21:46:10.624Z,150939.66
2023-05-16T21:48:36.674Z,150942.19
2023-05-16T21:51:03.327Z,150963.66
2023-05-16T21:53:29.418Z,150976.31
2023-05-16T21:55:55.284Z,150973.81
2023-05-16T21:58:21.368Z,150933.31
2023-05-16T22:00:47.412Z,150900.44
2023-05-16T22:03:13.652Z,150913.09
2023-05-16T22:05:39.604Z,150901.75
2023-05-16T22:08:07.230Z,150897.91
2023-05-16T22:10:33.086Z,150896.66
2023-05-16T22:12:59.104Z,150863.75
2023-05-16T22:15:25.138Z,150877.66
2023-05-16T22:17:51.250Z,150903.00
2023-05-16T22:20:17.648Z,150897.91
2023-05-16T22:22:44.183Z,150863.75
2023-05-16T22:25:10.161Z,150881.44
2023-05-16T22:27:36.019Z,150877.66
2023-05-16T22:30:01.936Z,150891.63
2023-05-16T22:32:28.167Z,150871.34
2023-05-16T22:34:54.053Z,150877.66
2023-05-16T22:37:19.929Z,150885.25
2023-05-16T22:39:45.986Z,150880.19
2023-05-16T22:42:11.808Z,150890.34
2023-05-16T22:44:37.672Z,150877.66
2023-05-16T22:47:03.754Z,150876.41
2023-05-16T22:49:29.873Z,150866.31
2023-05-16T22:51:55.762Z,150822.06
2023-05-16T22:54:21.691Z,150873.88
2023-05-16T22:56:47.546Z,150853.66
2023-05-16T22:59:14.255Z,150851.13
2023-05-16T23:01:40.248Z,150825.84
2023-05-16T23:04:06.201Z,150822.06
2023-05-16T23:06:32.313Z,150817.00
2023-05-16T23:08:59.742Z,150810.66
2023-05-16T23:11:25.733Z,150785.41
2023-05-16T23:13:53.974Z,150775.28
2023-05-16T23:16:19.854Z,150767.72
2023-05-16T23:18:45.827Z,150758.91
2023-05-16T23:21:11.774Z,150755.06
2023-05-16T23:23:37.707Z,150772.75
2023-05-16T23:26:03.645Z,150753.81
2023-05-16T23:28:29.613Z,150775.28
2023-05-16T23:30:55.612Z,150785.41
2023-05-16T23:33:21.580Z,150796.81
2023-05-16T23:35:47.540Z,150815.75
2023-05-16T23:38:13.372Z,150792.97
2023-05-16T23:40:39.236Z,150792.97
2023-05-16T23:43:05.129Z,150787.94
2023-05-16T23:45:31.020Z,150761.44
2023-05-16T23:47:57.267Z,150789.19
2023-05-16T23:50:23.310Z,150787.94
2023-05-16T23:52:49.948Z,150800.59
2023-05-16T23:55:15.983Z,150779.13
2023-05-16T23:57:41.935Z,150779.13
